Time,TemperatureF,DewpointF,PressureIn,WindDirection,WindDirectionDegrees,WindSpeedMPH,WindSpeedGustMPH,Humidity,HourlyPrecipIn,Conditions,Clouds,dailyrainin,SoftwareType,DateUTC
2013-06-27 00:01:00,63.7,61.3,29.32,East,90,0.0,1.1,92,0.00,,---,0.00,VWS V14.01,2013-06-27 04:01:00,
2013-06-27 00:02:00,63.5,61.1,29.32,East,90,1.6,2.5,92,0.00,,---,0.00,VWS V14.01,2013-06-27 04:02:00,
2013-06-27 00:06:00,63.5,61.1,29.32,NNW,338,0.9,0.9,92,0.00,,---,0.00,VWS V14.01,2013-06-27 04:06:00,
2013-06-27 00:10:00,63.5,61.1,29.32,NNE,22,0.0,0.0,92,0.00,,---,0.00,VWS V14.01,2013-06-27 04:10:00,
2013-06-27 00:16:00,63.3,61.0,29.32,NNW,338,0.0,0.0,92,0.00,,---,0.00,VWS V14.01,2013-06-27 04:16:00,
2013-06-27 00:22:00,63.1,60.8,29.32,ENE,68,0.0,1.3,92,0.00,,---,0.00,VWS V14.01,2013-06-27 04:22:00,
2013-06-27 00:28:00,63.0,60.6,29.32,ENE,68,2.5,2.9,92,0.00,,---,0.00,VWS V14.01,2013-06-27 04:28:00,
2013-06-27 00:35:00,62.8,60.4,29.32,East,90,3.1,3.1,92,0.00,,---,0.00,VWS V14.01,2013-06-27 04:35:00,
2013-06-27 00:40:00,62.6,60.2,29.32,SSW,202,0.0,2.5,92,0.00,,---,0.00,VWS V14.01,2013-06-27 04:40:00,
2013-06-27 00:46:00,62.6,60.2,29.32,ENE,68,2.5,2.5,92,0.00,,---,0.00,VWS V14.01,2013-06-27 04:46:00,
2013-06-27 00:52:00,62.4,60.4,29.32,WNW,292,0.0,0.0,93,0.00,,---,0.00,VWS V14.01,2013-06-27 04:52:00,
2013-06-27 00:57:00,62.4,60.4,29.32,NNE,22,0.0,0.0,93,0.00,,---,0.00,VWS V14.01,2013-06-27 04:57:00,
2013-06-27 01:03:00,62.2,60.2,29.32,NE,45,0.0,0.0,93,0.00,,---,0.00,VWS V14.01,2013-06-27 05:03:00,
2013-06-27 01:08:00,62.2,60.2,29.35,NE,45,0.0,0.0,93,0.00,,---,0.00,VWS V14.01,2013-06-27 05:08:00,
2013-06-27 01:15:00,62.2,60.2,29.35,ENE,68,0.0,3.6,93,0.00,,---,0.00,VWS V14.01,2013-06-27 05:15:00,
2013-06-27 01:21:00,62.1,60.0,29.35,ENE,68,2.0,2.7,93,0.00,,---,0.00,VWS V14.01,2013-06-27 05:21:00,
2013-06-27 01:26:00,61.9,59.8,29.35,ESE,112,1.1,1.3,93,0.00,,---,0.00,VWS V14.01,2013-06-27 05:26:00,
2013-06-27 01:31:00,61.9,59.8,29.35,NNE,22,0.0,0.0,93,0.00,,---,0.00,VWS V14.01,2013-06-27 05:31:00,
2013-06-27 01:36:00,61.7,59.7,29.35,NNE,22,0.0,0.0,93,0.00,,---,0.00,VWS V14.01,2013-06-27 05:36:00,
2013-06-27 01:42:00,61.7,60.0,29.35,NNE,22,0.0,2.2,94,0.00,,---,0.00,VWS V14.01,2013-06-27 05:42:00,
2013-06-27 01:47:00,61.7,60.0,29.35,NNE,22,0.0,0.0,94,0.00,,---,0.00,VWS V14.01,2013-06-27 05:47:00,
2013-06-27 01:52:00,61.7,60.0,29.35,NNE,22,0.0,0.0,94,0.00,,---,0.00,VWS V14.01,2013-06-27 05:52:00,
2013-06-27 01:57:00,61.5,59.8,29.35,NNE,22,0.0,3.1,94,0.00,,---,0.00,VWS V14.01,2013-06-27 05:57:00,
2013-06-27 02:02:00,61.5,59.8,29.35,NE,45,0.0,2.0,94,0.00,,---,0.00,VWS V14.01,2013-06-27 06:02:00,
2013-06-27 02:07:00,61.5,59.8,29.35,ENE,68,0.0,0.0,94,0.00,,---,0.00,VWS V14.01,2013-06-27 06:07:00,
2013-06-27 02:12:00,61.3,59.6,29.32,NNE,22,0.0,0.0,94,0.00,,---,0.00,VWS V14.01,2013-06-27 06:12:00,
2013-06-27 02:17:00,61.2,59.4,29.32,NNW,338,1.3,1.3,94,0.00,,---,0.00,VWS V14.01,2013-06-27 06:17:00,
2013-06-27 02:22:00,61.2,59.4,29.32,ESE,112,0.0,2.7,94,0.00,,---,0.00,VWS V14.01,2013-06-27 06:22:00,
2013-06-27 02:27:00,61.0,59.2,29.32,ENE,68,0.0,0.0,94,0.00,,---,0.00,VWS V14.01,2013-06-27 06:27:00,
2013-06-27 02:32:00,61.0,59.2,29.32,ENE,68,0.0,0.0,94,0.00,,---,0.00,VWS V14.01,2013-06-27 06:32:00,
2013-06-27 02:37:00,60.8,59.1,29.32,NNE,22,0.0,0.0,94,0.00,,---,0.00,VWS V14.01,2013-06-27 06:37:00,
2013-06-27 02:43:00,60.8,59.1,29.32,SE,135,0.0,0.0,94,0.00,,---,0.00,VWS V14.01,2013-06-27 06:43:00,
2013-06-27 02:49:00,60.6,58.9,29.32,ENE,68,0.0,1.6,94,0.00,,---,0.00,VWS V14.01,2013-06-27 06:49:00,
2013-06-27 02:54:00,60.6,59.2,29.32,ENE,68,0.0,1.3,95,0.00,,---,0.00,VWS V14.01,2013-06-27 06:54:00,
2013-06-27 02:59:00,60.6,59.2,29.32,NE,45,0.0,1.6,95,0.00,,---,0.00,VWS V14.01,2013-06-27 06:59:00,
2013-06-27 03:04:00,60.6,59.2,29.32,North,0,0.0,0.0,95,0.00,,---,0.00,VWS V14.01,2013-06-27 07:04:00,
2013-06-27 03:10:00,60.6,59.2,29.32,North,0,0.0,0.0,95,0.00,,---,0.00,VWS V14.01,2013-06-27 07:10:00,
2013-06-27 03:15:00,60.6,59.2,29.32,ENE,68,0.0,0.0,95,0.00,,---,0.00,VWS V14.01,2013-06-27 07:15:00,
2013-06-27 03:20:00,60.4,59.0,29.32,West,270,0.0,0.0,95,0.00,,---,0.00,VWS V14.01,2013-06-27 07:20:00,
2013-06-27 03:25:00,60.4,59.0,29.32,NNE,22,0.0,0.0,95,0.00,,---,0.00,VWS V14.01,2013-06-27 07:25:00,
2013-06-27 03:30:00,60.4,59.0,29.32,NNE,22,0.0,0.0,95,0.00,,---,0.00,VWS V14.01,2013-06-27 07:30:00,
2013-06-27 03:35:00,60.4,59.0,29.32,NNE,22,1.1,1.3,95,0.00,,---,0.00,VWS V14.01,2013-06-27 07:35:00,
2013-06-27 03:40:00,60.4,59.0,29.32,NNE,22,0.0,0.0,95,0.00,,---,0.00,VWS V14.01,2013-06-27 07:40:00,
2013-06-27 03:46:00,60.4,59.3,29.32,NNE,22,0.0,0.0,96,0.00,,---,0.00,VWS V14.01,2013-06-27 07:46:00,
2013-06-27 03:51:00,60.4,59.3,29.32,NNE,22,0.0,0.0,96,0.00,,---,0.00,VWS V14.01,2013-06-27 07:51:00,
2013-06-27 03:56:00,60.4,59.3,29.32,NNE,22,0.0,0.0,96,0.00,,---,0.00,VWS V14.01,2013-06-27 07:56:00,
2013-06-27 04:01:00,60.4,59.3,29.32,NNE,22,0.0,0.0,96,0.00,,---,0.00,VWS V14.01,2013-06-27 08:01:00,
2013-06-27 04:06:00,60.4,59.3,29.32,NNE,22,0.9,1.3,96,0.00,,---,0.00,VWS V14.01,2013-06-27 08:06:00,
2013-06-27 04:12:00,60.3,59.1,29.32,NNE,22,0.0,0.0,96,0.00,,---,0.00,VWS V14.01,2013-06-27 08:12:00,
2013-06-27 04:17:00,60.4,59.3,29.32,NNE,22,0.0,0.0,96,0.00,,---,0.00,VWS V14.01,2013-06-27 08:17:00,
2013-06-27 04:23:00,60.4,59.3,29.32,NNE,22,0.0,0.0,96,0.00,,---,0.00,VWS V14.01,2013-06-27 08:23:00,
2013-06-27 04:28:00,60.4,59.3,29.32,NNE,22,0.0,0.0,96,0.00,,---,0.00,VWS V14.01,2013-06-27 08:28:00,
2013-06-27 04:33:00,60.4,59.3,29.32,NNE,22,0.0,0.0,96,0.00,,---,0.00,VWS V14.01,2013-06-27 08:33:00,
2013-06-27 04:39:00,60.3,59.1,29.32,NNE,22,0.0,0.0,96,0.00,,---,0.00,VWS V14.01,2013-06-27 08:39:00,
2013-06-27 04:44:00,60.3,59.1,29.32,West,270,0.0,0.0,96,0.00,,---,0.00,VWS V14.01,2013-06-27 08:44:00,
2013-06-27 04:49:00,60.3,59.1,29.32,West,270,0.0,0.0,96,0.00,,---,0.00,VWS V14.01,2013-06-27 08:49:00,
2013-06-27 04:55:00,60.3,59.1,29.32,NNW,338,0.0,0.0,96,0.05,,---,0.05,VWS V14.01,2013-06-27 08:55:00,
2013-06-27 05:01:00,60.3,59.1,29.32,ENE,68,1.1,2.7,96,0.05,,---,0.05,VWS V14.01,2013-06-27 09:01:00,
2013-06-27 05:06:00,60.3,59.1,29.32,ENE,68,0.0,0.0,96,0.05,,---,0.05,VWS V14.01,2013-06-27 09:06:00,
2013-06-27 05:12:00,60.3,59.1,29.32,ENE,68,0.0,0.0,96,0.05,,---,0.05,VWS V14.01,2013-06-27 09:12:00,
2013-06-27 05:19:00,60.3,59.4,29.32,ENE,68,0.0,0.0,97,0.05,,---,0.05,VWS V14.01,2013-06-27 09:19:00,
2013-06-27 05:25:00,60.1,58.9,29.32,ENE,68,0.0,1.3,96,0.05,,---,0.05,VWS V14.01,2013-06-27 09:25:00,
2013-06-27 05:30:00,60.3,59.4,29.32,ENE,68,0.0,0.0,97,0.05,,---,0.05,VWS V14.01,2013-06-27 09:30:00,
2013-06-27 05:36:00,60.3,59.4,29.32,ENE,68,2.0,2.0,97,0.05,,---,0.05,VWS V14.01,2013-06-27 09:36:00,
2013-06-27 05:42:00,60.1,59.2,29.32,ENE,68,0.0,0.0,97,0.05,,---,0.05,VWS V14.01,2013-06-27 09:42:00,
2013-06-27 05:48:00,60.1,59.2,29.32,ENE,68,0.0,0.0,97,0.05,,---,0.05,VWS V14.01,2013-06-27 09:48:00,
2013-06-27 05:54:00,60.1,59.2,29.35,ENE,68,0.0,0.0,97,0.00,,---,0.05,VWS V14.01,2013-06-27 09:54:00,
2013-06-27 05:59:00,60.1,59.2,29.35,ENE,68,0.0,0.0,97,0.00,,---,0.05,VWS V14.01,2013-06-27 09:59:00,
2013-06-27 06:05:00,60.1,59.2,29.35,NNW,338,0.0,0.0,97,0.00,,---,0.05,VWS V14.01,2013-06-27 10:05:00,
2013-06-27 06:11:00,60.1,59.2,29.32,ESE,112,2.2,2.9,97,0.00,,---,0.05,VWS V14.01,2013-06-27 10:11:00,
2013-06-27 06:16:00,60.1,58.9,29.32,NNE,22,2.2,2.5,96,0.00,,---,0.05,VWS V14.01,2013-06-27 10:16:00,
2013-06-27 06:22:00,60.1,58.9,29.32,NNE,22,0.0,1.6,96,0.00,,---,0.05,VWS V14.01,2013-06-27 10:22:00,
2013-06-27 06:27:00,60.1,58.9,29.35,NNE,22,0.0,0.0,96,0.00,,---,0.05,VWS V14.01,2013-06-27 10:27:00,
2013-06-27 06:33:00,60.1,58.9,29.35,NNE,22,0.0,0.0,96,0.00,,---,0.05,VWS V14.01,2013-06-27 10:33:00,
2013-06-27 06:38:00,60.1,59.2,29.32,North,0,0.0,1.6,97,0.00,,---,0.05,VWS V14.01,2013-06-27 10:38:00,
2013-06-27 06:43:00,60.1,59.2,29.32,NNE,22,0.0,0.0,97,0.00,,---,0.05,VWS V14.01,2013-06-27 10:43:00,
2013-06-27 06:48:00,60.3,59.4,29.32,NNE,22,0.0,0.0,97,0.00,,---,0.05,VWS V14.01,2013-06-27 10:48:00,
2013-06-27 06:54:00,60.4,59.6,29.32,NNE,22,0.0,0.0,97,0.00,,---,0.05,VWS V14.01,2013-06-27 10:54:00,
2013-06-27 06:59:00,60.4,59.6,29.32,NNE,22,0.0,0.0,97,0.00,,---,0.05,VWS V14.01,2013-06-27 10:59:00,
2013-06-27 07:05:00,60.4,59.6,29.32,NNE,22,0.0,0.0,97,0.00,,---,0.05,VWS V14.01,2013-06-27 11:05:00,
2013-06-27 07:11:00,60.4,59.3,29.35,NNE,22,0.0,0.0,96,0.00,,---,0.05,VWS V14.01,2013-06-27 11:11:00,
2013-06-27 07:17:00,60.4,59.3,29.35,NNE,22,0.0,0.0,96,0.00,,---,0.05,VWS V14.01,2013-06-27 11:17:00,
2013-06-27 07:22:00,60.6,59.8,29.32,NNE,22,0.0,0.0,97,0.00,,---,0.05,VWS V14.01,2013-06-27 11:22:00,
2013-06-27 07:28:00,60.8,59.7,29.32,NNE,22,1.3,1.3,96,0.00,,---,0.05,VWS V14.01,2013-06-27 11:28:00,
2013-06-27 07:34:00,60.8,59.7,29.32,East,90,1.1,2.2,96,0.00,,---,0.05,VWS V14.01,2013-06-27 11:34:00,
2013-06-27 07:39:00,61.0,59.8,29.32,East,90,0.0,0.0,96,0.00,,---,0.05,VWS V14.01,2013-06-27 11:39:00,
2013-06-27 07:44:00,61.0,59.8,29.32,East,90,0.0,0.0,96,0.00,,---,0.05,VWS V14.01,2013-06-27 11:44:00,
2013-06-27 07:50:00,61.2,60.0,29.32,ENE,68,0.0,0.0,96,0.00,,---,0.05,VWS V14.01,2013-06-27 11:50:00,
2013-06-27 07:56:00,61.2,60.0,29.35,ENE,68,0.0,1.3,96,0.00,,---,0.05,VWS V14.01,2013-06-27 11:56:00,
2013-06-27 08:02:00,61.3,60.2,29.35,NNE,22,1.1,2.2,96,0.00,,---,0.05,VWS V14.01,2013-06-27 12:02:00,
2013-06-27 08:07:00,61.3,60.2,29.35,NNE,22,0.0,2.5,96,0.00,,---,0.05,VWS V14.01,2013-06-27 12:07:00,
2013-06-27 08:12:00,61.3,60.2,29.35,NNE,22,0.9,1.1,96,0.00,,---,0.05,VWS V14.01,2013-06-27 12:12:00,
2013-06-27 08:17:00,61.5,60.4,29.35,NNE,22,0.0,1.3,96,0.00,,---,0.05,VWS V14.01,2013-06-27 12:17:00,
2013-06-27 08:22:00,61.5,60.1,29.35,NNE,22,1.6,2.0,95,0.00,,---,0.05,VWS V14.01,2013-06-27 12:22:00,
2013-06-27 08:28:00,61.3,59.9,29.35,NNE,22,1.3,2.5,95,0.00,,---,0.05,VWS V14.01,2013-06-27 12:28:00,
2013-06-27 08:34:00,61.5,60.1,29.35,NNE,22,2.2,2.2,95,0.00,,---,0.05,VWS V14.01,2013-06-27 12:34:00,
2013-06-27 08:39:00,61.5,60.1,29.35,NNE,22,0.0,0.0,95,0.00,,---,0.05,VWS V14.01,2013-06-27 12:39:00,
2013-06-27 08:44:00,61.9,60.4,29.35,NNE,22,0.0,0.0,95,0.00,,---,0.05,VWS V14.01,2013-06-27 12:44:00,
2013-06-27 08:49:00,62.1,60.6,29.35,NNE,22,0.0,2.0,95,0.00,,---,0.05,VWS V14.01,2013-06-27 12:49:00,
2013-06-27 08:55:00,62.2,60.8,29.35,NNE,22,1.6,1.6,95,0.00,,---,0.05,VWS V14.01,2013-06-27 12:55:00,
2013-06-27 09:00:00,62.2,60.5,29.35,North,0,2.0,2.0,94,0.00,,---,0.05,VWS V14.01,2013-06-27 13:00:00,
2013-06-27 09:06:00,62.4,60.7,29.35,NE,45,0.0,0.0,94,0.00,,---,0.05,VWS V14.01,2013-06-27 13:06:00,
2013-06-27 09:12:00,62.6,60.8,29.32,NNE,22,1.3,1.3,94,0.00,,---,0.05,VWS V14.01,2013-06-27 13:12:00,
2013-06-27 09:17:00,62.6,60.5,29.32,NNE,22,0.0,1.1,93,0.00,,---,0.05,VWS V14.01,2013-06-27 13:17:00,
2013-06-27 09:22:00,62.6,60.5,29.32,NNE,22,0.0,0.9,93,0.00,,---,0.05,VWS V14.01,2013-06-27 13:22:00,
2013-06-27 09:27:00,63.0,60.9,29.32,NNW,338,0.0,0.0,93,0.00,,---,0.05,VWS V14.01,2013-06-27 13:27:00,
2013-06-27 09:32:00,63.0,60.9,29.32,NW,315,0.0,0.0,93,0.00,,---,0.05,VWS V14.01,2013-06-27 13:32:00,
2013-06-27 09:38:00,63.5,61.4,29.32,NNW,338,0.0,0.0,93,0.00,,---,0.05,VWS V14.01,2013-06-27 13:38:00,
2013-06-27 09:43:00,63.7,61.3,29.32,NNE,22,0.0,0.0,92,0.00,,---,0.05,VWS V14.01,2013-06-27 13:43:00,
2013-06-27 09:49:00,63.9,61.2,29.32,West,270,0.0,0.0,91,0.00,,---,0.05,VWS V14.01,2013-06-27 13:49:00,
2013-06-27 09:55:00,63.9,61.2,29.32,NNE,22,0.0,0.0,91,0.00,,---,0.05,VWS V14.01,2013-06-27 13:55:00,
2013-06-27 10:00:00,64.0,61.4,29.32,NNE,22,0.0,0.0,91,0.00,,---,0.05,VWS V14.01,2013-06-27 14:00:00,
2013-06-27 10:05:00,63.9,60.9,29.32,ENE,68,0.0,0.0,90,0.00,,---,0.05,VWS V14.01,2013-06-27 14:05:00,
2013-06-27 10:11:00,63.9,61.2,29.32,NNW,338,0.0,0.0,91,0.00,,---,0.05,VWS V14.01,2013-06-27 14:11:00,
2013-06-27 10:16:00,64.0,61.4,29.32,NNW,338,0.0,2.0,91,0.00,,---,0.05,VWS V14.01,2013-06-27 14:16:00,
2013-06-27 10:21:00,64.2,61.2,29.32,South,180,0.0,0.0,90,0.00,,---,0.05,VWS V14.01,2013-06-27 14:21:00,
2013-06-27 10:27:00,64.2,61.2,29.32,West,270,0.9,1.3,90,0.00,,---,0.05,VWS V14.01,2013-06-27 14:27:00,
2013-06-27 10:32:00,64.2,61.2,29.32,ENE,68,1.3,1.6,90,0.00,,---,0.05,VWS V14.01,2013-06-27 14:32:00,
2013-06-27 10:37:00,64.2,60.9,29.32,East,90,0.9,2.2,89,0.00,,---,0.05,VWS V14.01,2013-06-27 14:37:00,
2013-06-27 10:42:00,64.2,60.9,29.32,East,90,0.9,0.9,89,0.00,,---,0.05,VWS V14.01,2013-06-27 14:42:00,
2013-06-27 10:48:00,64.2,60.9,29.32,ENE,68,0.0,2.0,89,0.00,,---,0.05,VWS V14.01,2013-06-27 14:48:00,
2013-06-27 10:54:00,64.4,61.1,29.32,ENE,68,0.0,0.0,89,0.00,,---,0.05,VWS V14.01,2013-06-27 14:54:00,
2013-06-27 10:59:00,64.4,61.1,29.32,NNW,338,1.6,2.0,89,0.00,,---,0.05,VWS V14.01,2013-06-27 14:59:00,
2013-06-27 11:04:00,64.8,61.5,29.32,SSW,202,0.0,0.0,89,0.00,,---,0.05,VWS V14.01,2013-06-27 15:04:00,
2013-06-27 11:10:00,64.8,61.5,29.32,WNW,292,0.0,0.0,89,0.00,,---,0.05,VWS V14.01,2013-06-27 15:10:00,
2013-06-27 11:15:00,64.8,61.5,29.32,SW,225,0.0,1.1,89,0.00,,---,0.05,VWS V14.01,2013-06-27 15:15:00,
2013-06-27 11:20:00,65.1,61.8,29.32,North,0,0.9,0.9,89,0.00,,---,0.05,VWS V14.01,2013-06-27 15:20:00,
2013-06-27 11:25:00,65.5,62.2,29.32,North,0,2.2,2.2,89,0.00,,---,0.05,VWS V14.01,2013-06-27 15:25:00,
2013-06-27 11:30:00,65.8,62.5,29.32,ENE,68,0.0,0.0,89,0.00,,---,0.05,VWS V14.01,2013-06-27 15:30:00,
2013-06-27 11:35:00,66.2,62.9,29.32,WNW,292,0.9,1.6,89,0.00,,---,0.05,VWS V14.01,2013-06-27 15:35:00,
2013-06-27 11:40:00,66.2,62.5,29.32,North,0,1.1,1.3,88,0.00,,---,0.05,VWS V14.01,2013-06-27 15:40:00,
2013-06-27 11:46:00,66.6,62.6,29.32,ENE,68,2.5,2.5,87,0.00,,---,0.05,VWS V14.01,2013-06-27 15:46:00,
2013-06-27 11:51:00,66.7,62.4,29.32,NNE,22,2.7,2.7,86,0.00,,---,0.05,VWS V14.01,2013-06-27 15:51:00,
2013-06-27 11:56:00,66.9,62.6,29.32,NNE,22,0.0,0.0,86,0.00,,---,0.05,VWS V14.01,2013-06-27 15:56:00,
2013-06-27 12:01:00,66.9,61.6,29.32,NNE,22,0.0,1.3,83,0.00,,---,0.05,VWS V14.01,2013-06-27 16:01:00,
2013-06-27 12:06:00,67.1,61.8,29.32,NNW,338,0.0,0.0,83,0.00,,---,0.05,VWS V14.01,2013-06-27 16:06:00,
2013-06-27 12:11:00,67.3,62.0,29.32,WNW,292,0.0,0.0,83,0.00,,---,0.05,VWS V14.01,2013-06-27 16:11:00,
2013-06-27 12:16:00,67.5,61.8,29.32,SSW,202,0.0,0.0,82,0.00,,---,0.05,VWS V14.01,2013-06-27 16:16:00,
2013-06-27 12:21:00,67.6,62.3,29.32,ENE,68,2.0,2.5,83,0.00,,---,0.05,VWS V14.01,2013-06-27 16:21:00,
2013-06-27 12:26:00,68.0,62.7,29.32,West,270,0.0,0.9,83,0.00,,---,0.05,VWS V14.01,2013-06-27 16:26:00,
2013-06-27 12:31:00,68.0,62.3,29.32,ENE,68,1.3,2.0,82,0.00,,---,0.05,VWS V14.01,2013-06-27 16:31:00,
2013-06-27 12:36:00,68.2,62.8,29.32,SW,225,1.3,1.6,83,0.00,,---,0.05,VWS V14.01,2013-06-27 16:36:00,
2013-06-27 12:41:00,68.5,62.8,29.32,NE,45,1.3,2.5,82,0.00,,---,0.05,VWS V14.01,2013-06-27 16:41:00,
2013-06-27 12:46:00,68.5,62.8,29.32,ENE,68,1.1,1.1,82,0.00,,---,0.05,VWS V14.01,2013-06-27 16:46:00,
2013-06-27 12:52:00,68.7,62.7,29.32,NNE,22,0.0,0.0,81,0.00,,---,0.05,VWS V14.01,2013-06-27 16:52:00,
2013-06-27 12:58:00,68.9,62.5,29.32,East,90,0.0,1.6,80,0.00,,---,0.05,VWS V14.01,2013-06-27 16:58:00,
2013-06-27 13:03:00,69.1,63.0,29.32,West,270,1.6,2.2,81,0.00,,---,0.05,VWS V14.01,2013-06-27 17:03:00,
2013-06-27 13:09:00,69.1,62.7,29.29,WNW,292,2.2,2.5,80,0.00,,---,0.05,VWS V14.01,2013-06-27 17:09:00,
2013-06-27 13:15:00,69.3,62.8,29.29,NNW,338,0.0,0.0,80,0.00,,---,0.05,VWS V14.01,2013-06-27 17:15:00,
2013-06-27 13:20:00,69.3,62.8,29.29,NNW,338,0.0,1.1,80,0.00,,---,0.05,VWS V14.01,2013-06-27 17:20:00,
2013-06-27 13:25:00,69.4,62.7,29.29,NNW,338,1.6,1.6,79,0.00,,---,0.05,VWS V14.01,2013-06-27 17:25:00,
2013-06-27 13:30:00,69.4,62.3,29.29,NNW,338,0.0,0.0,78,0.00,,---,0.05,VWS V14.01,2013-06-27 17:30:00,
2013-06-27 13:35:00,69.4,62.3,29.29,NNW,338,0.0,0.0,78,0.00,,---,0.05,VWS V14.01,2013-06-27 17:35:00,
2013-06-27 13:40:00,70.0,62.8,29.29,North,0,1.3,3.1,78,0.00,,---,0.05,VWS V14.01,2013-06-27 17:40:00,
2013-06-27 13:46:00,70.5,63.3,29.29,NE,45,0.0,0.0,78,0.00,,---,0.05,VWS V14.01,2013-06-27 17:46:00,
2013-06-27 13:52:00,70.9,63.7,29.29,East,90,0.0,3.1,78,0.00,,---,0.05,VWS V14.01,2013-06-27 17:52:00,
2013-06-27 13:57:00,70.7,63.1,29.29,ESE,112,1.3,2.0,77,0.00,,---,0.05,VWS V14.01,2013-06-27 17:57:00,
2013-06-27 14:02:00,70.9,63.3,29.29,ENE,68,0.0,0.0,77,0.00,,---,0.05,VWS V14.01,2013-06-27 18:02:00,
2013-06-27 14:08:00,70.9,63.3,29.29,NW,315,1.6,2.2,77,0.00,,---,0.05,VWS V14.01,2013-06-27 18:08:00,
2013-06-27 14:14:00,70.9,63.0,29.29,WNW,292,0.0,0.0,76,0.00,,---,0.05,VWS V14.01,2013-06-27 18:14:00,
2013-06-27 14:19:00,71.1,62.7,29.29,WNW,292,0.0,0.0,75,0.00,,---,0.05,VWS V14.01,2013-06-27 18:19:00,
2013-06-27 14:24:00,70.9,62.6,29.29,WNW,292,0.0,0.0,75,0.00,,---,0.05,VWS V14.01,2013-06-27 18:24:00,
2013-06-27 14:31:00,70.9,62.6,29.29,NNE,22,0.0,0.0,75,0.00,,---,0.05,VWS V14.01,2013-06-27 18:31:00,
2013-06-27 14:36:00,70.9,62.6,29.29,NNW,338,1.1,1.1,75,0.00,,---,0.05,VWS V14.01,2013-06-27 18:36:00,
2013-06-27 14:42:00,71.4,63.1,29.29,East,90,2.9,2.9,75,0.00,,---,0.05,VWS V14.01,2013-06-27 18:42:00,
2013-06-27 14:47:00,71.2,62.5,29.29,ENE,68,0.0,1.1,74,0.00,,---,0.05,VWS V14.01,2013-06-27 18:47:00,
2013-06-27 14:53:00,71.2,63.3,29.29,WNW,292,0.0,0.0,76,0.00,,---,0.05,VWS V14.01,2013-06-27 18:53:00,
2013-06-27 14:58:00,71.2,62.5,29.29,WNW,292,0.0,0.0,74,0.00,,---,0.05,VWS V14.01,2013-06-27 18:58:00,
2013-06-27 15:04:00,71.4,62.7,29.29,WNW,292,0.0,0.0,74,0.00,,---,0.05,VWS V14.01,2013-06-27 19:04:00,
2013-06-27 15:10:00,72.1,63.8,29.29,South,180,0.0,0.0,75,0.00,,---,0.05,VWS V14.01,2013-06-27 19:10:00,
2013-06-27 15:15:00,72.1,63.4,29.29,SSW,202,0.0,0.0,74,0.00,,---,0.05,VWS V14.01,2013-06-27 19:15:00,
2013-06-27 15:20:00,72.5,64.1,29.29,SSE,158,1.3,1.6,75,0.00,,---,0.05,VWS V14.01,2013-06-27 19:20:00,
2013-06-27 15:25:00,72.7,63.5,29.29,South,180,2.0,2.5,73,0.00,,---,0.05,VWS V14.01,2013-06-27 19:25:00,
2013-06-27 15:30:00,73.0,64.3,29.29,NE,45,0.0,0.0,74,0.00,,---,0.05,VWS V14.01,2013-06-27 19:30:00,
2013-06-27 15:35:00,73.0,63.9,29.29,East,90,0.0,0.0,73,0.00,,---,0.05,VWS V14.01,2013-06-27 19:35:00,
2013-06-27 15:40:00,73.2,64.1,29.29,WSW,248,3.4,3.4,73,0.00,,---,0.05,VWS V14.01,2013-06-27 19:40:00,
2013-06-27 15:46:00,73.0,63.5,29.29,ENE,68,0.0,0.0,72,0.00,,---,0.05,VWS V14.01,2013-06-27 19:46:00,
2013-06-27 15:52:00,72.9,63.3,29.29,NW,315,2.7,2.7,72,0.00,,---,0.05,VWS V14.01,2013-06-27 19:52:00,
2013-06-27 15:58:00,72.3,62.4,29.26,NW,315,0.0,2.0,71,0.00,,---,0.05,VWS V14.01,2013-06-27 19:58:00,
2013-06-27 16:03:00,72.1,62.6,29.26,ENE,68,0.0,2.0,72,0.00,,---,0.05,VWS V14.01,2013-06-27 20:03:00,
2013-06-27 16:08:00,72.0,62.0,29.29,SSE,158,2.9,2.9,71,0.00,,---,0.05,VWS V14.01,2013-06-27 20:08:00,
2013-06-27 16:14:00,72.1,63.0,29.29,East,90,3.1,3.1,73,0.00,,---,0.05,VWS V14.01,2013-06-27 20:14:00,
2013-06-27 16:20:00,72.3,63.2,29.29,ENE,68,1.6,1.6,73,0.00,,---,0.05,VWS V14.01,2013-06-27 20:20:00,
2013-06-27 16:25:00,72.1,63.0,29.29,WNW,292,0.0,0.0,73,0.00,,---,0.05,VWS V14.01,2013-06-27 20:25:00,
2013-06-27 16:30:00,72.0,62.8,29.29,WNW,292,0.0,0.0,73,0.00,,---,0.05,VWS V14.01,2013-06-27 20:30:00,
2013-06-27 16:36:00,72.0,63.6,29.29,WNW,292,0.0,0.0,75,0.00,,---,0.05,VWS V14.01,2013-06-27 20:36:00,
2013-06-27 16:41:00,71.8,63.4,29.29,WNW,292,0.0,0.0,75,0.00,,---,0.05,VWS V14.01,2013-06-27 20:41:00,
2013-06-27 16:46:00,71.6,63.6,29.29,ENE,68,0.0,1.6,76,0.00,,---,0.05,VWS V14.01,2013-06-27 20:46:00,
2013-06-27 16:52:00,71.6,64.0,29.29,ENE,68,0.0,0.0,77,0.00,,---,0.05,VWS V14.01,2013-06-27 20:52:00,
2013-06-27 16:57:00,71.6,64.4,29.26,ENE,68,0.0,0.0,78,0.00,,---,0.05,VWS V14.01,2013-06-27 20:57:00,
2013-06-27 17:03:00,72.0,64.7,29.26,ENE,68,0.0,0.0,78,0.00,,---,0.05,VWS V14.01,2013-06-27 21:03:00,
2013-06-27 17:09:00,72.0,64.7,29.29,NNW,338,0.0,0.0,78,0.00,,---,0.05,VWS V14.01,2013-06-27 21:09:00,
2013-06-27 17:14:00,72.0,64.7,29.29,NNW,338,0.0,0.0,78,0.00,,---,0.05,VWS V14.01,2013-06-27 21:14:00,
2013-06-27 17:20:00,72.0,64.7,29.29,ENE,68,0.9,0.9,78,0.00,,---,0.05,VWS V14.01,2013-06-27 21:20:00,
2013-06-27 17:25:00,71.8,64.9,29.26,NE,45,0.0,0.0,79,0.00,,---,0.05,VWS V14.01,2013-06-27 21:25:00,
2013-06-27 17:31:00,71.6,64.8,29.26,NE,45,2.5,2.5,79,0.00,,---,0.05,VWS V14.01,2013-06-27 21:31:00,
2013-06-27 17:36:00,71.4,64.6,29.26,ENE,68,2.0,2.2,79,0.00,,---,0.05,VWS V14.01,2013-06-27 21:36:00,
2013-06-27 17:41:00,71.4,64.6,29.26,ENE,68,0.0,0.0,79,0.00,,---,0.05,VWS V14.01,2013-06-27 21:41:00,
2013-06-27 17:48:00,71.6,64.8,29.26,NNE,22,1.1,1.1,79,0.00,,---,0.05,VWS V14.01,2013-06-27 21:48:00,
2013-06-27 17:53:00,71.8,64.9,29.26,NE,45,0.0,1.6,79,0.00,,---,0.05,VWS V14.01,2013-06-27 21:53:00,
2013-06-27 17:59:00,72.0,65.1,29.26,SW,225,1.3,2.0,79,0.00,,---,0.05,VWS V14.01,2013-06-27 21:59:00,
2013-06-27 18:05:00,72.0,65.1,29.26,North,0,0.0,0.0,79,0.00,,---,0.05,VWS V14.01,2013-06-27 22:05:00,
2013-06-27 18:10:00,71.8,64.6,29.26,North,0,0.0,0.0,78,0.00,,---,0.05,VWS V14.01,2013-06-27 22:10:00,
2013-06-27 18:16:00,71.6,64.8,29.26,North,0,0.0,0.0,79,0.00,,---,0.05,VWS V14.01,2013-06-27 22:16:00,
2013-06-27 18:21:00,71.4,64.6,29.26,NNE,22,0.0,0.0,79,0.00,,---,0.05,VWS V14.01,2013-06-27 22:21:00,
2013-06-27 18:27:00,71.1,64.6,29.26,ENE,68,1.3,2.7,80,0.00,,---,0.05,VWS V14.01,2013-06-27 22:27:00,
2013-06-27 18:33:00,70.7,64.2,29.26,NNE,22,0.0,0.0,80,0.00,,---,0.05,VWS V14.01,2013-06-27 22:33:00,
2013-06-27 18:38:00,70.5,64.1,29.29,NNE,22,0.0,0.0,80,0.00,,---,0.05,VWS V14.01,2013-06-27 22:38:00,
2013-06-27 18:44:00,70.2,63.7,29.29,NNE,22,0.0,0.0,80,0.00,,---,0.05,VWS V14.01,2013-06-27 22:44:00,
2013-06-27 18:49:00,70.0,63.9,29.29,NNE,22,0.0,0.0,81,0.00,,---,0.05,VWS V14.01,2013-06-27 22:49:00,
2013-06-27 18:55:00,69.8,63.7,29.29,South,180,1.1,1.6,81,0.00,,---,0.05,VWS V14.01,2013-06-27 22:55:00,
2013-06-27 19:01:00,69.6,63.9,29.29,SSW,202,0.0,0.0,82,0.00,,---,0.05,VWS V14.01,2013-06-27 23:01:00,
2013-06-27 19:06:00,69.6,63.9,29.29,East,90,0.0,0.0,82,0.00,,---,0.05,VWS V14.01,2013-06-27 23:06:00,
2013-06-27 19:12:00,69.4,64.1,29.29,East,90,0.0,0.0,83,0.00,,---,0.05,VWS V14.01,2013-06-27 23:12:00,
2013-06-27 19:18:00,69.4,64.1,29.29,East,90,0.0,0.0,83,0.00,,---,0.05,VWS V14.01,2013-06-27 23:18:00,
2013-06-27 19:23:00,69.3,63.9,29.29,East,90,0.0,0.0,83,0.00,,---,0.05,VWS V14.01,2013-06-27 23:23:00,
2013-06-27 19:28:00,69.3,63.9,29.29,East,90,0.0,0.0,83,0.00,,---,0.05,VWS V14.01,2013-06-27 23:28:00,
2013-06-27 19:34:00,69.1,64.1,29.29,NE,45,0.0,2.9,84,0.00,,---,0.05,VWS V14.01,2013-06-27 23:34:00,
2013-06-27 19:39:00,68.9,63.9,29.29,NE,45,0.0,0.0,84,0.00,,---,0.05,VWS V14.01,2013-06-27 23:39:00,
2013-06-27 19:44:00,68.7,64.0,29.29,East,90,1.6,3.1,85,0.00,,---,0.05,VWS V14.01,2013-06-27 23:44:00,
2013-06-27 19:50:00,68.7,64.0,29.29,NNE,22,1.1,1.6,85,0.00,,---,0.05,VWS V14.01,2013-06-27 23:50:00,
2013-06-27 19:55:00,68.5,63.9,29.29,ESE,112,0.0,0.0,85,0.00,,---,0.05,VWS V14.01,2013-06-27 23:55:00,
2013-06-27 20:02:00,68.4,63.7,29.29,South,180,2.7,2.7,85,0.00,,---,0.05,VWS V14.01,2013-06-28 00:02:00,
2013-06-27 20:08:00,68.2,63.5,29.29,ENE,68,0.0,0.9,85,0.00,,---,0.05,VWS V14.01,2013-06-28 00:08:00,
2013-06-27 20:13:00,68.0,63.7,29.29,East,90,2.0,2.0,86,0.00,,---,0.05,VWS V14.01,2013-06-28 00:13:00,
2013-06-27 20:19:00,67.8,63.5,29.29,WSW,248,0.0,0.0,86,0.00,,---,0.05,VWS V14.01,2013-06-28 00:19:00,
2013-06-27 20:24:00,67.6,63.3,29.29,East,90,0.0,0.0,86,0.00,,---,0.05,VWS V14.01,2013-06-28 00:24:00,
2013-06-27 20:29:00,67.6,63.6,29.29,SW,225,1.3,3.4,87,0.00,,---,0.05,VWS V14.01,2013-06-28 00:29:00,
2013-06-27 20:34:00,67.5,63.1,29.29,ENE,68,0.0,2.5,86,0.00,,---,0.05,VWS V14.01,2013-06-28 00:34:00,
2013-06-27 20:39:00,67.3,63.0,29.29,NNW,338,0.0,0.9,86,0.00,,---,0.05,VWS V14.01,2013-06-28 00:39:00,
2013-06-27 20:45:00,67.1,62.8,29.29,ENE,68,0.9,2.0,86,0.00,,---,0.05,VWS V14.01,2013-06-28 00:45:00,
2013-06-27 20:51:00,66.9,62.6,29.29,ENE,68,0.0,2.0,86,0.00,,---,0.05,VWS V14.01,2013-06-28 00:51:00,
2013-06-27 20:58:00,66.7,62.8,29.29,South,180,0.0,0.0,87,0.00,,---,0.05,VWS V14.01,2013-06-28 00:58:00,
2013-06-27 21:03:00,66.6,62.6,29.29,East,90,0.0,0.0,87,0.00,,---,0.05,VWS V14.01,2013-06-28 01:03:00,
2013-06-27 21:09:00,66.4,62.7,29.29,NNE,22,0.0,0.0,88,0.00,,---,0.05,VWS V14.01,2013-06-28 01:09:00,
2013-06-27 21:14:00,66.2,62.5,29.29,NNE,22,0.0,0.0,88,0.00,,---,0.05,VWS V14.01,2013-06-28 01:14:00,
2013-06-27 21:19:00,66.2,62.5,29.29,East,90,0.0,0.0,88,0.00,,---,0.05,VWS V14.01,2013-06-28 01:19:00,
2013-06-27 21:25:00,66.0,62.7,29.32,ENE,68,0.0,0.0,89,0.00,,---,0.05,VWS V14.01,2013-06-28 01:25:00,
2013-06-27 21:30:00,65.8,62.5,29.32,ENE,68,0.0,0.0,89,0.00,,---,0.05,VWS V14.01,2013-06-28 01:30:00,
2013-06-27 21:35:00,65.8,62.8,29.32,ENE,68,0.0,0.0,90,0.00,,---,0.05,VWS V14.01,2013-06-28 01:35:00,
2013-06-27 21:41:00,65.7,62.7,29.32,ENE,68,0.0,0.0,90,0.00,,---,0.05,VWS V14.01,2013-06-28 01:41:00,
2013-06-27 21:46:00,65.7,62.7,29.32,ENE,68,0.0,0.0,90,0.00,,---,0.05,VWS V14.01,2013-06-28 01:46:00,
2013-06-27 21:51:00,65.5,62.5,29.32,ENE,68,0.0,0.0,90,0.00,,---,0.05,VWS V14.01,2013-06-28 01:51:00,
2013-06-27 21:57:00,65.5,62.8,29.32,ENE,68,0.0,0.0,91,0.00,,---,0.05,VWS V14.01,2013-06-28 01:57:00,
2013-06-27 22:03:00,65.3,62.6,29.32,SSE,158,0.0,0.0,91,0.00,,---,0.05,VWS V14.01,2013-06-28 02:03:00,
2013-06-27 22:08:00,65.1,62.1,29.32,ENE,68,0.0,0.0,90,0.00,,---,0.05,VWS V14.01,2013-06-28 02:08:00,
2013-06-27 22:13:00,64.9,62.2,29.32,ENE,68,0.0,0.0,91,0.00,,---,0.05,VWS V14.01,2013-06-28 02:13:00,
2013-06-27 22:19:00,64.8,62.1,29.32,ENE,68,0.0,0.0,91,0.00,,---,0.05,VWS V14.01,2013-06-28 02:19:00,
2013-06-27 22:24:00,64.6,61.9,29.32,ENE,68,0.0,0.0,91,0.00,,---,0.05,VWS V14.01,2013-06-28 02:24:00,
2013-06-27 22:31:00,64.6,62.2,29.32,ENE,68,0.0,0.0,92,0.00,,---,0.05,VWS V14.01,2013-06-28 02:31:00,
2013-06-27 22:36:00,64.4,62.0,29.32,ENE,68,0.0,0.0,92,0.00,,---,0.05,VWS V14.01,2013-06-28 02:36:00,
2013-06-27 22:41:00,64.4,62.0,29.32,ENE,68,0.0,0.0,92,0.00,,---,0.05,VWS V14.01,2013-06-28 02:41:00,
2013-06-27 22:47:00,64.4,62.3,29.32,ENE,68,0.0,0.0,93,0.04,,---,0.09,VWS V14.01,2013-06-28 02:47:00,
2013-06-27 22:52:00,64.2,62.2,29.32,ENE,68,0.0,0.0,93,0.04,,---,0.09,VWS V14.01,2013-06-28 02:52:00,
2013-06-27 22:57:00,64.2,62.2,29.32,ENE,68,0.0,0.0,93,0.04,,---,0.09,VWS V14.01,2013-06-28 02:57:00,
2013-06-27 23:02:00,64.2,62.2,29.32,ENE,68,0.0,0.0,93,0.04,,---,0.09,VWS V14.01,2013-06-28 03:02:00,
2013-06-27 23:07:00,64.0,62.0,29.32,ENE,68,0.0,0.0,93,0.04,,---,0.09,VWS V14.01,2013-06-28 03:07:00,
2013-06-27 23:13:00,64.0,62.0,29.32,ENE,68,0.0,0.0,93,0.04,,---,0.09,VWS V14.01,2013-06-28 03:13:00,
2013-06-27 23:18:00,64.0,62.3,29.32,ENE,68,0.0,0.0,94,0.04,,---,0.09,VWS V14.01,2013-06-28 03:18:00,
2013-06-27 23:24:00,63.9,62.1,29.32,ENE,68,0.0,0.0,94,0.04,,---,0.09,VWS V14.01,2013-06-28 03:24:00,
2013-06-27 23:30:00,63.9,62.1,29.32,ENE,68,0.0,0.0,94,0.04,,---,0.09,VWS V14.01,2013-06-28 03:30:00,
2013-06-27 23:35:00,63.9,62.1,29.32,ENE,68,0.0,0.0,94,0.04,,---,0.09,VWS V14.01,2013-06-28 03:35:00,
2013-06-27 23:42:00,63.9,62.4,29.29,ENE,68,0.0,0.0,95,0.04,,---,0.09,VWS V14.01,2013-06-28 03:42:00,
2013-06-27 23:47:00,63.7,61.9,29.29,ENE,68,0.0,0.0,94,0.00,,---,0.09,VWS V14.01,2013-06-28 03:47:00,
2013-06-27 23:53:00,63.7,61.9,29.32,ENE,68,0.0,0.0,94,0.00,,---,0.09,VWS V14.01,2013-06-28 03:53:00,